createdAt,value
2022-09-26T00:00:45.177Z,3.70
2022-09-26T00:01:45.250Z,3.40
2022-09-26T00:02:45.407Z,3.60
2022-09-26T00:03:45.127Z,3.20
2022-09-26T00:04:45.119Z,3.60
2022-09-26T00:05:45.116Z,3.30
2022-09-26T00:06:45.118Z,3.80
2022-09-26T00:07:45.075Z,3.20
2022-09-26T00:08:45.068Z,3.50
2022-09-26T00:09:45.052Z,3.30
2022-09-26T00:10:45.057Z,3.30
2022-09-26T00:11:45.042Z,3.50
2022-09-26T00:12:45.028Z,3.20
2022-09-26T00:13:45.025Z,3.40
2022-09-26T00:14:45.005Z,3.50
2022-09-26T00:15:45.011Z,3.50
2022-09-26T00:16:45.075Z,3.70
2022-09-26T00:17:44.967Z,3.30
2022-09-26T00:18:44.975Z,3.70
2022-09-26T00:19:44.957Z,3.60
2022-09-26T00:20:44.949Z,3.30
2022-09-26T00:21:44.952Z,3.60
2022-09-26T00:22:44.918Z,3.50
2022-09-26T00:23:44.927Z,3.80
2022-09-26T00:24:44.926Z,3.50
2022-09-26T00:25:44.887Z,3.30
2022-09-26T00:26:44.876Z,3.60
2022-09-26T00:27:44.865Z,3.80
2022-09-26T00:28:44.850Z,3.60
2022-09-26T00:29:44.851Z,3.50
2022-09-26T00:30:44.899Z,3.50
2022-09-26T00:31:44.839Z,3.60
2022-09-26T00:32:44.815Z,3.60
2022-09-26T00:33:44.800Z,4.20
2022-09-26T00:34:44.795Z,3.90
2022-09-26T00:35:44.767Z,3.80
2022-09-26T00:36:44.769Z,4.90
2022-09-26T00:37:44.762Z,3.90
2022-09-26T00:38:44.736Z,3.70
2022-09-26T00:39:44.724Z,3.90
2022-09-26T00:40:44.801Z,3.90
2022-09-26T00:41:44.720Z,4.30
2022-09-26T00:42:44.691Z,4.00
2022-09-26T00:43:44.684Z,4.20
2022-09-26T00:44:44.689Z,3.90
2022-09-26T00:45:51.780Z,4.00
2022-09-26T00:46:44.664Z,4.10
2022-09-26T00:47:44.630Z,4.30
2022-09-26T00:48:44.624Z,4.20
2022-09-26T00:49:44.621Z,3.80
2022-09-26T00:50:44.618Z,4.40
2022-09-26T00:51:44.588Z,4.00
2022-09-26T00:52:44.591Z,4.30
2022-09-26T00:53:44.584Z,4.10
2022-09-26T00:54:44.558Z,4.20
2022-09-26T00:55:44.545Z,4.00
2022-09-26T00:56:44.541Z,4.60
2022-09-26T00:57:44.531Z,4.20
2022-09-26T00:58:44.547Z,4.60
2022-09-26T00:59:44.497Z,4.30
2022-09-26T01:00:44.504Z,4.50
2022-09-26T01:01:44.581Z,4.50
2022-09-26T01:02:44.545Z,4.30
2022-09-26T01:03:44.469Z,4.30
2022-09-26T01:04:44.472Z,4.50
2022-09-26T01:05:44.443Z,4.40
2022-09-26T01:06:44.429Z,4.10
2022-09-26T01:07:44.419Z,4.50
2022-09-26T01:08:44.404Z,3.80
2022-09-26T01:09:44.404Z,4.50
2022-09-26T01:10:44.391Z,4.40
2022-09-26T01:11:44.366Z,4.60
2022-09-26T01:12:44.362Z,4.00
2022-09-26T01:13:44.384Z,4.60
2022-09-26T01:14:44.347Z,4.50
2022-09-26T01:15:44.351Z,4.40
2022-09-26T01:16:44.356Z,4.70
2022-09-26T01:17:44.299Z,4.40
2022-09-26T01:18:44.291Z,4.20
2022-09-26T01:19:44.276Z,4.60
2022-09-26T01:20:44.284Z,4.60
2022-09-26T01:21:44.259Z,4.30
2022-09-26T01:22:44.265Z,4.30
2022-09-26T01:23:44.241Z,4.50
2022-09-26T01:24:44.239Z,4.70
2022-09-26T01:25:44.251Z,4.00
2022-09-26T01:26:44.205Z,4.40
2022-09-26T01:27:44.200Z,4.30
2022-09-26T01:28:44.179Z,4.70
2022-09-26T01:29:44.165Z,4.40
2022-09-26T01:30:44.271Z,4.80
2022-09-26T01:31:44.285Z,4.50
2022-09-26T01:32:44.155Z,4.40
2022-09-26T01:33:44.124Z,4.30
2022-09-26T01:34:44.121Z,4.40
2022-09-26T01:35:44.115Z,4.30
2022-09-26T01:36:44.112Z,4.70
2022-09-26T01:37:44.076Z,4.20
2022-09-26T01:38:44.071Z,4.50
2022-09-26T01:39:44.061Z,4.40
2022-09-26T01:40:44.172Z,4.50
2022-09-26T01:41:44.143Z,4.50
2022-09-26T01:42:44.035Z,4.50
2022-09-26T01:43:44.017Z,4.60
2022-09-26T01:44:44.008Z,4.20
2022-09-26T01:45:44.085Z,4.40
2022-09-26T01:46:43.977Z,4.80
2022-09-26T01:47:43.998Z,4.40
2022-09-26T01:48:43.969Z,4.30
2022-09-26T01:49:43.957Z,4.20
2022-09-26T01:50:43.951Z,4.20
2022-09-26T01:51:43.928Z,4.30
2022-09-26T01:52:43.924Z,4.30
2022-09-26T01:53:43.917Z,4.10
2022-09-26T01:54:43.922Z,4.10
2022-09-26T01:55:43.883Z,4.20
2022-09-26T01:56:43.888Z,4.30
2022-09-26T01:57:43.880Z,4.40
2022-09-26T01:58:43.857Z,4.50
2022-09-26T01:59:43.838Z,4.10
2022-09-26T02:00:43.883Z,4.40
2022-09-26T02:01:43.918Z,4.10
2022-09-26T02:02:43.913Z,4.40
2022-09-26T02:03:43.808Z,3.90
2022-09-26T02:04:43.787Z,4.20
2022-09-26T02:05:43.803Z,3.90
2022-09-26T02:06:43.759Z,4.00
2022-09-26T02:07:43.756Z,4.00
2022-09-26T02:08:43.747Z,4.20
2022-09-26T02:09:43.733Z,4.10
2022-09-26T02:10:43.728Z,4.30
2022-09-26T02:11:43.722Z,4.10
2022-09-26T02:12:43.691Z,3.70
2022-09-26T02:13:43.710Z,4.10
2022-09-26T02:14:43.687Z,4.00
2022-09-26T02:15:43.673Z,4.20
2022-09-26T02:16:43.686Z,3.80
2022-09-26T02:17:43.646Z,4.10
2022-09-26T02:18:43.640Z,4.00
2022-09-26T02:19:43.641Z,4.00
2022-09-26T02:20:43.603Z,4.10
2022-09-26T02:21:43.600Z,3.90
2022-09-26T02:22:43.580Z,3.80
2022-09-26T02:23:43.588Z,4.00
2022-09-26T02:24:43.572Z,4.00
2022-09-26T02:25:43.564Z,3.80
2022-09-26T02:26:43.539Z,4.10
2022-09-26T02:27:43.532Z,4.30
2022-09-26T02:28:43.523Z,4.10
2022-09-26T02:29:43.538Z,3.70
2022-09-26T02:30:43.496Z,3.90
2022-09-26T02:31:43.578Z,4.30
2022-09-26T02:32:43.485Z,3.80
2022-09-26T02:33:43.467Z,3.60
2022-09-26T02:34:43.449Z,4.50
2022-09-26T02:35:43.479Z,3.80
2022-09-26T02:36:43.448Z,4.00
2022-09-26T02:37:43.423Z,3.60
2022-09-26T02:38:43.416Z,4.50
2022-09-26T02:39:43.404Z,3.70
2022-09-26T02:40:43.491Z,3.90
2022-09-26T02:41:43.378Z,4.00
2022-09-26T02:42:43.361Z,4.40
2022-09-26T02:43:43.398Z,3.80
2022-09-26T02:44:43.337Z,3.60
2022-09-26T02:45:43.435Z,3.90
2022-09-26T02:46:50.872Z,3.60
2022-09-26T02:47:43.308Z,3.90
2022-09-26T02:48:43.294Z,3.50
2022-09-26T02:49:43.291Z,3.90
2022-09-26T02:50:43.270Z,3.90
2022-09-26T02:51:43.280Z,4.20
2022-09-26T02:52:43.259Z,3.60
2022-09-26T02:53:43.260Z,3.70
2022-09-26T02:54:43.226Z,4.20
2022-09-26T02:55:43.226Z,3.70
2022-09-26T02:56:43.232Z,3.60
2022-09-26T02:57:43.199Z,3.50
2022-09-26T02:58:43.182Z,3.50
2022-09-26T02:59:43.180Z,3.30
2022-09-26T03:00:43.252Z,3.80
2022-09-26T03:01:43.356Z,3.60
2022-09-26T03:02:43.138Z,3.80
2022-09-26T03:03:43.230Z,3.50
2022-09-26T03:04:43.212Z,3.70
2022-09-26T03:05:43.213Z,3.60
2022-09-26T03:06:43.106Z,3.80
2022-09-26T03:07:43.114Z,3.40
2022-09-26T03:08:43.074Z,3.60
2022-09-26T03:09:43.067Z,3.70
2022-09-26T03:10:43.061Z,3.20
2022-09-26T03:11:43.062Z,3.50
2022-09-26T03:12:43.040Z,3.70
2022-09-26T03:13:43.027Z,3.70
2022-09-26T03:14:43.004Z,3.50
2022-09-26T03:15:43.003Z,3.30
2022-09-26T03:16:43.089Z,3.60
2022-09-26T03:17:42.997Z,3.60
2022-09-26T03:18:42.961Z,3.80
2022-09-26T03:19:42.976Z,3.70
2022-09-26T03:20:42.940Z,3.60
2022-09-26T03:21:42.933Z,4.00
2022-09-26T03:22:42.938Z,4.00
2022-09-26T03:23:42.921Z,3.40
2022-09-26T03:24:42.909Z,3.70
2022-09-26T03:25:42.888Z,3.40
2022-09-26T03:26:42.871Z,3.40
2022-09-26T03:27:42.879Z,3.40
2022-09-26T03:28:42.854Z,3.80
2022-09-26T03:29:42.867Z,3.80
2022-09-26T03:30:42.842Z,3.80
2022-09-26T03:31:42.866Z,3.30
2022-09-26T03:32:42.823Z,3.80
2022-09-26T03:33:42.829Z,3.70
2022-09-26T03:34:42.800Z,3.60
2022-09-26T03:35:42.792Z,3.50
2022-09-26T03:36:42.761Z,3.80
2022-09-26T03:37:42.762Z,3.30
2022-09-26T03:38:42.751Z,3.40
2022-09-26T03:39:42.732Z,3.50
2022-09-26T03:40:42.731Z,3.50
2022-09-26T03:41:42.721Z,3.60
2022-09-26T03:42:42.740Z,4.00
2022-09-26T03:43:42.686Z,3.60
2022-09-26T03:44:42.699Z,3.50
2022-09-26T03:45:42.719Z,3.80
2022-09-26T03:46:42.650Z,3.80
2022-09-26T03:47:42.644Z,3.80
2022-09-26T03:48:42.649Z,3.70
2022-09-26T03:49:42.653Z,4.00
2022-09-26T03:50:42.608Z,3.80
2022-09-26T03:51:42.597Z,3.70
2022-09-26T03:52:42.603Z,3.80
2022-09-26T03:53:42.580Z,3.50
2022-09-26T03:54:42.567Z,4.00
2022-09-26T03:55:42.566Z,3.90
2022-09-26T03:56:42.536Z,3.50
2022-09-26T03:57:42.553Z,3.60
2022-09-26T03:58:42.522Z,3.80
2022-09-26T03:59:42.525Z,4.20
2022-09-26T04:00:42.586Z,3.50
2022-09-26T04:01:42.502Z,3.80
2022-09-26T04:02:42.592Z,3.70
2022-09-26T04:03:47.755Z,3.80
2022-09-26T04:04:43.472Z,3.70
2022-09-26T04:05:42.484Z,3.90
2022-09-26T04:06:42.437Z,3.70
2022-09-26T04:07:42.431Z,3.80
2022-09-26T04:08:42.401Z,4.20
2022-09-26T04:09:42.403Z,3.90
2022-09-26T04:10:42.391Z,3.90
2022-09-26T04:11:42.374Z,3.70
2022-09-26T04:12:42.358Z,3.90
2022-09-26T04:13:57.649Z,4.00
2022-09-26T04:14:43.351Z,4.20
2022-09-26T04:15:42.356Z,3.90
2022-09-26T04:16:42.417Z,3.80
2022-09-26T04:17:42.320Z,3.70
2022-09-26T04:18:42.323Z,4.30
2022-09-26T04:19:42.318Z,3.60
2022-09-26T04:20:42.268Z,4.40
2022-09-26T04:21:42.290Z,3.80
2022-09-26T04:22:42.247Z,4.20
2022-09-26T04:23:42.243Z,4.30
2022-09-26T04:24:42.278Z,3.90
2022-09-26T04:25:42.217Z,3.80
2022-09-26T04:26:42.202Z,4.00
2022-09-26T04:27:42.207Z,3.90
2022-09-26T04:28:42.246Z,4.10
2022-09-26T04:29:42.184Z,4.10
2022-09-26T04:30:42.166Z,4.20
2022-09-26T04:31:42.342Z,4.10
2022-09-26T04:32:42.150Z,4.20
2022-09-26T04:33:42.129Z,4.90
2022-09-26T04:34:42.125Z,4.40
2022-09-26T04:35:42.124Z,4.40
2022-09-26T04:36:42.097Z,4.60
2022-09-26T04:37:42.103Z,4.10
2022-09-26T04:38:42.084Z,4.10
2022-09-26T04:39:42.090Z,4.20
2022-09-26T04:40:42.937Z,4.00
2022-09-26T04:41:42.047Z,4.10
2022-09-26T04:42:42.036Z,3.80
2022-09-26T04:43:42.018Z,4.10
2022-09-26T04:44:42.023Z,4.20
2022-09-26T04:45:42.044Z,4.00
2022-09-26T04:46:41.979Z,4.20
2022-09-26T04:47:48.983Z,3.60
2022-09-26T04:48:41.955Z,3.90
2022-09-26T04:49:41.976Z,4.10
2022-09-26T04:50:41.934Z,4.30
2022-09-26T04:51:41.939Z,4.10
2022-09-26T04:52:41.958Z,3.80
2022-09-26T04:53:41.948Z,4.00
2022-09-26T04:54:41.890Z,4.10
2022-09-26T04:55:41.893Z,4.00
2022-09-26T04:56:41.870Z,3.90
2022-09-26T04:57:41.899Z,4.10
2022-09-26T04:58:41.858Z,4.00
2022-09-26T04:59:41.854Z,3.90
2022-09-26T05:00:41.888Z,3.90
2022-09-26T05:01:41.878Z,4.10
2022-09-26T05:02:41.886Z,3.90
2022-09-26T05:03:41.798Z,4.00
2022-09-26T05:04:41.779Z,3.90
2022-09-26T05:05:41.789Z,4.60
2022-09-26T05:06:41.766Z,4.40
2022-09-26T05:07:41.808Z,4.20
2022-09-26T05:08:41.745Z,4.50
2022-09-26T05:09:41.755Z,4.60
2022-09-26T05:10:41.713Z,4.70
2022-09-26T05:11:41.706Z,4.40
2022-09-26T05:12:41.698Z,4.20
2022-09-26T05:13:41.696Z,4.10
2022-09-26T05:14:41.670Z,4.20
2022-09-26T05:15:41.660Z,4.50
2022-09-26T05:16:41.726Z,4.90
2022-09-26T05:17:41.655Z,4.20
2022-09-26T05:18:41.623Z,4.30
2022-09-26T05:19:41.630Z,4.30
2022-09-26T05:20:41.600Z,4.70
2022-09-26T05:21:41.594Z,5.10
2022-09-26T05:22:41.585Z,4.70
2022-09-26T05:23:44.794Z,4.70
2022-09-26T05:24:41.584Z,4.60
2022-09-26T05:25:41.573Z,4.70
2022-09-26T05:26:41.550Z,5.00
2022-09-26T05:27:41.543Z,4.80
2022-09-26T05:28:41.517Z,5.10
2022-09-26T05:29:41.510Z,4.80
2022-09-26T05:30:41.529Z,5.10
2022-09-26T05:31:41.511Z,5.00
2022-09-26T05:32:41.470Z,5.60
2022-09-26T05:33:41.461Z,5.30
2022-09-26T05:34:41.451Z,6.50
2022-09-26T05:35:41.453Z,5.50
2022-09-26T05:36:41.423Z,5.70
2022-09-26T05:37:41.435Z,5.50
2022-09-26T05:38:41.459Z,5.10
2022-09-26T05:39:42.593Z,5.60
2022-09-26T05:40:41.468Z,5.40
2022-09-26T05:41:41.393Z,5.80
2022-09-26T05:42:41.356Z,5.40
2022-09-26T05:43:41.411Z,5.20
2022-09-26T05:44:41.364Z,5.80
2022-09-26T05:45:41.365Z,5.40
2022-09-26T05:46:41.411Z,5.90
2022-09-26T05:47:41.343Z,5.70
2022-09-26T05:48:41.383Z,5.80
2022-09-26T05:49:41.420Z,5.10
2022-09-26T05:50:43.575Z,6.00
2022-09-26T05:51:41.301Z,5.50
2022-09-26T05:52:41.277Z,6.50
2022-09-26T05:53:41.957Z,5.60
2022-09-26T05:54:41.228Z,6.00
2022-09-26T05:55:41.513Z,5.80
2022-09-26T05:56:41.221Z,6.60
2022-09-26T05:57:41.232Z,6.10
2022-09-26T05:58:41.562Z,5.90
2022-09-26T05:59:41.170Z,6.30
2022-09-26T06:00:41.232Z,6.10
2022-09-26T06:01:41.253Z,6.20
2022-09-26T06:02:41.270Z,6.00
2022-09-26T06:03:41.149Z,6.20
2022-09-26T06:04:41.151Z,6.50
2022-09-26T06:05:41.124Z,6.30
2022-09-26T06:06:41.112Z,6.60
2022-09-26T06:07:41.115Z,6.30
2022-09-26T06:08:41.077Z,7.20
2022-09-26T06:09:41.066Z,6.40
2022-09-26T06:10:41.080Z,7.60
2022-09-26T06:11:41.070Z,6.80
2022-09-26T06:12:41.036Z,6.80
2022-09-26T06:13:41.043Z,7.10
2022-09-26T06:14:41.064Z,7.10
2022-09-26T06:15:40.996Z,8.10
2022-09-26T06:16:41.124Z,7.30
2022-09-26T06:17:40.999Z,7.60
2022-09-26T06:18:41.022Z,7.40
2022-09-26T06:19:40.964Z,7.20
2022-09-26T06:20:40.954Z,7.20
2022-09-26T06:21:40.992Z,7.40
2022-09-26T06:22:40.944Z,8.00
2022-09-26T06:23:40.918Z,8.50
2022-09-26T06:24:40.961Z,7.60
2022-09-26T06:25:40.882Z,7.20
2022-09-26T06:26:41.894Z,8.20
2022-09-26T06:27:40.875Z,7.60
2022-09-26T06:28:40.870Z,7.60
2022-09-26T06:29:40.864Z,7.80
2022-09-26T06:30:40.832Z,7.70
2022-09-26T06:31:40.869Z,7.80
2022-09-26T06:32:40.820Z,8.00
2022-09-26T06:33:40.867Z,8.20
2022-09-26T06:34:40.800Z,8.20
2022-09-26T06:35:40.806Z,8.20
2022-09-26T06:36:40.799Z,8.90
2022-09-26T06:37:40.763Z,8.30
2022-09-26T06:38:40.763Z,8.90
2022-09-26T06:39:40.729Z,8.10
2022-09-26T06:40:40.789Z,9.10
2022-09-26T06:41:40.780Z,8.80
2022-09-26T06:42:40.700Z,9.10
2022-09-26T06:43:40.681Z,8.60
2022-09-26T06:44:40.734Z,8.20
2022-09-26T06:45:40.711Z,7.90
2022-09-26T06:46:40.793Z,8.00
2022-09-26T06:47:40.654Z,8.30
2022-09-26T06:49:56.124Z,8.70
2022-09-26T06:50:56.111Z,9.60
2022-09-26T06:51:56.118Z,8.80
2022-09-26T06:52:56.086Z,8.30
2022-09-26T06:53:56.087Z,9.40
2022-09-26T06:54:56.074Z,8.80
2022-09-26T06:55:56.076Z,8.70
2022-09-26T06:56:56.041Z,8.10
2022-09-26T06:57:56.045Z,8.30
2022-09-26T06:58:56.053Z,8.30
2022-09-26T06:59:56.003Z,8.40
2022-09-26T07:00:56.206Z,7.80
2022-09-26T07:01:57.141Z,7.90
2022-09-26T07:02:56.029Z,8.30
2022-09-26T07:03:55.975Z,8.20
2022-09-26T07:04:57.493Z,8.30
2022-09-26T07:05:55.962Z,8.40
2022-09-26T07:06:58.312Z,7.90
2022-09-26T07:07:55.928Z,8.00
2022-09-26T07:09:06.468Z,7.60
2022-09-26T07:09:57.160Z,7.80
2022-09-26T07:11:06.340Z,7.70
2022-09-26T07:12:14.082Z,7.40
2022-09-26T07:12:56.877Z,8.00
2022-09-26T07:13:55.886Z,7.80
2022-09-26T07:14:55.855Z,7.80
2022-09-26T07:15:55.871Z,8.00
2022-09-26T07:16:55.861Z,7.70
2022-09-26T07:17:55.823Z,7.60
2022-09-26T07:18:55.807Z,7.10
2022-09-26T07:19:55.814Z,6.90
2022-09-26T07:20:56.919Z,7.10
2022-09-26T07:21:55.777Z,7.20
2022-09-26T07:22:55.756Z,6.80
2022-09-26T07:23:55.766Z,7.50
2022-09-26T07:24:55.737Z,7.30
2022-09-26T07:25:55.742Z,7.00
2022-09-26T07:26:55.742Z,6.90
2022-09-26T07:27:55.699Z,7.00
2022-09-26T07:28:55.724Z,7.30
2022-09-26T07:29:55.706Z,6.90
2022-09-26T07:30:55.700Z,6.80
2022-09-26T07:31:55.809Z,6.90
2022-09-26T07:32:55.670Z,6.70
2022-09-26T07:33:55.634Z,6.60
2022-09-26T07:34:55.700Z,6.30
2022-09-26T07:35:55.610Z,6.10
2022-09-26T07:36:55.639Z,5.90
2022-09-26T07:37:55.600Z,6.00
2022-09-26T07:38:55.585Z,5.80
2022-09-26T07:40:00.720Z,6.10
2022-09-26T07:40:56.612Z,5.20
2022-09-26T07:41:55.575Z,5.90
2022-09-26T07:43:18.156Z,5.30
2022-09-26T07:45:56.622Z,5.30
2022-09-26T07:46:55.589Z,5.20
2022-09-26T07:47:55.733Z,5.40
2022-09-26T07:48:55.777Z,4.90
2022-09-26T07:49:55.495Z,5.30
2022-09-26T07:50:55.445Z,4.90
2022-09-26T07:51:55.452Z,4.70
2022-09-26T07:52:55.427Z,5.00
2022-09-26T07:53:55.429Z,4.70
2022-09-26T07:54:55.471Z,4.90
2022-09-26T07:55:55.490Z,4.80
2022-09-26T07:56:57.097Z,5.00
2022-09-26T07:57:55.419Z,4.30
2022-09-26T07:58:55.428Z,4.90
2022-09-26T07:59:55.457Z,3.90
2022-09-26T08:00:55.580Z,4.50
2022-09-26T08:01:57.096Z,4.70
2022-09-26T08:02:55.570Z,4.40
2022-09-26T08:03:57.506Z,4.20
2022-09-26T08:05:00.745Z,5.10
2022-09-26T08:05:57.008Z,4.30
2022-09-26T08:06:55.299Z,3.90
2022-09-26T08:07:56.012Z,3.60
2022-09-26T08:08:55.339Z,4.20
2022-09-26T08:09:56.006Z,4.20
2022-09-26T08:10:58.039Z,3.40
2022-09-26T08:11:57.053Z,3.60
2022-09-26T08:12:55.227Z,3.80
2022-09-26T08:13:56.218Z,3.70
2022-09-26T08:14:56.009Z,4.00
2022-09-26T08:15:55.356Z,3.80
2022-09-26T08:16:55.186Z,3.30
2022-09-26T08:17:56.063Z,3.50
2022-09-26T08:18:55.165Z,3.20
2022-09-26T08:19:55.158Z,3.40
2022-09-26T08:20:56.012Z,2.90
2022-09-26T08:21:56.055Z,3.70
2022-09-26T08:22:56.039Z,3.20
2022-09-26T08:23:57.085Z,2.80
2022-09-26T08:24:56.540Z,3.30
2022-09-26T08:25:55.090Z,3.10
2022-09-26T08:26:56.065Z,3.50
2022-09-26T08:27:56.108Z,3.30
2022-09-26T08:28:55.034Z,3.20
2022-09-26T08:29:55.023Z,3.00
2022-09-26T08:30:55.105Z,3.70
2022-09-26T08:31:55.146Z,3.20
2022-09-26T08:32:54.994Z,2.90
2022-09-26T08:33:54.984Z,3.00
2022-09-26T08:34:55.047Z,2.40
2022-09-26T08:35:54.960Z,2.40
2022-09-26T08:36:54.983Z,2.70
2022-09-26T08:37:54.955Z,2.70
2022-09-26T08:38:54.920Z,2.90
2022-09-26T08:39:54.944Z,3.10
2022-09-26T08:40:55.088Z,2.50
2022-09-26T08:41:55.012Z,2.60
2022-09-26T08:42:54.875Z,2.50
2022-09-26T08:43:54.863Z,3.00
2022-09-26T08:44:54.896Z,2.90
2022-09-26T08:45:54.858Z,3.00
2022-09-26T08:46:54.901Z,3.00
2022-09-26T08:47:54.875Z,3.00
2022-09-26T08:48:54.880Z,2.80
2022-09-26T08:50:02.437Z,2.80
2022-09-26T08:50:54.817Z,2.30
2022-09-26T08:51:54.834Z,2.60
2022-09-26T08:52:54.857Z,2.50
2022-09-26T08:53:54.798Z,2.30
2022-09-26T08:54:54.762Z,2.40
2022-09-26T08:55:54.735Z,2.50
2022-09-26T08:56:54.766Z,2.60
2022-09-26T08:57:54.749Z,2.20
2022-09-26T08:58:54.694Z,2.50
2022-09-26T08:59:54.719Z,2.50
2022-09-26T09:00:54.683Z,2.30
2022-09-26T09:01:54.816Z,2.80
2022-09-26T09:02:54.702Z,2.20
2022-09-26T09:03:54.653Z,2.40
2022-09-26T09:04:54.686Z,2.20
2022-09-26T09:05:54.619Z,2.50
2022-09-26T09:06:54.658Z,2.40
2022-09-26T09:07:54.606Z,2.40
2022-09-26T09:08:54.649Z,2.20
2022-09-26T09:09:54.606Z,2.70
2022-09-26T09:10:54.570Z,2.10
2022-09-26T09:11:54.551Z,2.60
2022-09-26T09:12:54.563Z,2.20
2022-09-26T09:13:54.532Z,2.40
2022-09-26T09:15:20.467Z,2.20
2022-09-26T09:15:55.594Z,2.00
2022-09-26T09:16:54.494Z,2.10
2022-09-26T09:17:54.524Z,2.00
2022-09-26T09:18:54.504Z,2.70
2022-09-26T09:19:54.478Z,2.20
2022-09-26T09:20:54.457Z,2.00
2022-09-26T09:21:54.592Z,2.10
2022-09-26T09:22:54.426Z,2.00
2022-09-26T09:23:54.424Z,2.20
2022-09-26T09:24:54.427Z,2.20
2022-09-26T09:25:54.644Z,2.20
2022-09-26T09:27:55.897Z,2.60
2022-09-26T09:28:54.364Z,2.20
2022-09-26T09:29:54.647Z,2.70
2022-09-26T09:30:54.501Z,2.30
2022-09-26T09:31:54.342Z,2.20
2022-09-26T09:32:54.379Z,2.40
2022-09-26T09:33:55.064Z,2.40
2022-09-26T09:34:54.328Z,2.40
2022-09-26T09:35:54.297Z,2.30
2022-09-26T09:36:54.342Z,2.30
2022-09-26T09:37:54.264Z,2.40
2022-09-26T09:38:54.263Z,2.10
2022-09-26T09:39:54.241Z,2.70
2022-09-26T09:40:54.392Z,2.30
2022-09-26T09:41:54.249Z,2.60
2022-09-26T09:42:54.219Z,2.20
2022-09-26T09:43:54.198Z,1.90
2022-09-26T09:44:54.185Z,2.10
2022-09-26T09:45:54.179Z,2.00
2022-09-26T09:46:54.250Z,2.50
2022-09-26T09:47:54.177Z,2.20
2022-09-26T09:48:54.164Z,2.70
2022-09-26T09:49:54.143Z,2.30
2022-09-26T09:50:54.115Z,2.60
2022-09-26T09:51:54.114Z,2.10
2022-09-26T09:52:54.237Z,2.30
2022-09-26T09:53:54.096Z,2.20
2022-09-26T09:54:54.072Z,2.60
2022-09-26T09:55:54.091Z,2.10
2022-09-26T09:56:54.100Z,2.40
2022-09-26T09:57:54.075Z,2.00
2022-09-26T09:58:54.033Z,2.00
2022-09-26T09:59:54.023Z,2.40
2022-09-26T10:00:54.027Z,2.40
2022-09-26T10:01:54.028Z,2.30
2022-09-26T10:02:54.090Z,2.40
2022-09-26T10:03:53.984Z,2.40
2022-09-26T10:04:54.001Z,2.00
2022-09-26T10:05:53.962Z,2.30
2022-09-26T10:06:53.953Z,2.30
2022-09-26T10:07:53.980Z,2.40
2022-09-26T10:08:53.919Z,2.50
2022-09-26T10:09:53.920Z,2.80
2022-09-26T10:10:53.930Z,2.50
2022-09-26T10:11:53.891Z,2.50
2022-09-26T10:12:53.914Z,3.00
2022-09-26T10:13:53.881Z,2.70
2022-09-26T10:14:53.884Z,2.80
2022-09-26T10:15:53.907Z,2.40
2022-09-26T10:16:53.832Z,2.90
2022-09-26T10:18:19.837Z,2.70
2022-09-26T10:18:58.169Z,2.20
2022-09-26T10:19:54.811Z,2.30
2022-09-26T10:20:53.795Z,3.50
2022-09-26T10:21:53.783Z,2.80
2022-09-26T10:22:53.786Z,2.80
2022-09-26T10:23:53.768Z,2.80
2022-09-26T10:24:53.762Z,2.60
2022-09-26T10:25:53.741Z,3.60
2022-09-26T10:26:53.743Z,2.60
2022-09-26T10:27:53.718Z,2.70
2022-09-26T10:28:53.729Z,3.10
2022-09-26T10:29:53.727Z,3.30
2022-09-26T10:30:53.742Z,2.90
2022-09-26T10:31:53.774Z,2.50
2022-09-26T10:32:56.558Z,2.40
2022-09-26T10:33:53.683Z,2.70
2022-09-26T10:34:53.644Z,2.90
2022-09-26T10:35:53.674Z,2.50
2022-09-26T10:36:53.639Z,3.20
2022-09-26T10:37:53.646Z,2.90
2022-09-26T10:38:53.601Z,2.70
2022-09-26T10:39:53.604Z,2.70
2022-09-26T10:40:53.696Z,2.60
2022-09-26T10:41:53.703Z,3.80
2022-09-26T10:42:53.573Z,2.50
2022-09-26T10:43:53.608Z,2.90
2022-09-26T10:44:53.557Z,2.80
2022-09-26T10:45:53.537Z,2.60
2022-09-26T10:46:53.578Z,3.10
2022-09-26T10:47:53.508Z,2.70
2022-09-26T10:48:53.517Z,2.70
2022-09-26T10:49:53.511Z,2.90
2022-09-26T10:51:00.999Z,3.10
2022-09-26T10:51:53.460Z,3.40
2022-09-26T10:52:53.453Z,3.30
2022-09-26T10:53:53.435Z,3.40
2022-09-26T10:54:53.420Z,4.10
2022-09-26T10:55:53.443Z,4.20
2022-09-26T10:56:53.411Z,3.30
2022-09-26T10:57:53.461Z,3.20
2022-09-26T10:58:53.408Z,3.60
2022-09-26T10:59:53.370Z,3.40
2022-09-26T11:00:53.403Z,4.00
2022-09-26T11:01:53.410Z,3.10
2022-09-26T11:02:53.332Z,3.30
2022-09-26T11:03:53.378Z,3.10
2022-09-26T11:04:53.329Z,2.70
2022-09-26T11:05:53.363Z,2.70
2022-09-26T11:06:53.293Z,3.10
2022-09-26T11:07:53.292Z,2.40
2022-09-26T11:08:53.268Z,2.80
2022-09-26T11:09:53.289Z,2.50
2022-09-26T11:10:53.257Z,2.50
2022-09-26T11:11:53.252Z,2.20
2022-09-26T11:12:53.267Z,2.60
2022-09-26T11:13:53.412Z,2.80
2022-09-26T11:14:53.336Z,2.80
2022-09-26T11:15:53.231Z,3.00
2022-09-26T11:16:53.253Z,2.60
2022-09-26T11:17:53.214Z,2.70
2022-09-26T11:18:53.189Z,2.60
2022-09-26T11:19:54.985Z,3.20
2022-09-26T11:20:53.140Z,2.80
2022-09-26T11:21:53.146Z,2.80
2022-09-26T11:22:53.267Z,2.80
2022-09-26T11:23:53.111Z,3.20
2022-09-26T11:24:53.097Z,2.60
2022-09-26T11:25:57.567Z,2.70
2022-09-26T11:26:53.131Z,2.80
2022-09-26T11:27:53.064Z,2.70
2022-09-26T11:28:53.065Z,2.50
2022-09-26T11:29:53.055Z,2.50
2022-09-26T11:30:53.070Z,2.50
2022-09-26T11:31:55.112Z,2.30
2022-09-26T11:32:54.026Z,2.60
2022-09-26T11:33:52.999Z,2.50
2022-09-26T11:34:52.996Z,2.20
2022-09-26T11:35:52.992Z,2.30
2022-09-26T11:36:52.992Z,2.10
2022-09-26T11:37:52.965Z,2.10
2022-09-26T11:38:52.940Z,2.20
2022-09-26T11:39:52.945Z,2.10
2022-09-26T11:40:53.040Z,2.40
2022-09-26T11:41:52.917Z,2.70
2022-09-26T11:42:52.898Z,2.20
2022-09-26T11:43:52.911Z,2.10
2022-09-26T11:44:53.586Z,2.30
2022-09-26T11:45:52.975Z,2.20
2022-09-26T11:46:52.940Z,2.50
2022-09-26T11:47:52.909Z,1.90
2022-09-26T11:48:52.858Z,2.10
2022-09-26T11:49:52.962Z,2.40
2022-09-26T11:50:52.828Z,2.30
2022-09-26T11:51:52.826Z,2.10
2022-09-26T11:52:52.812Z,1.90
2022-09-26T11:53:52.792Z,2.00
2022-09-26T11:54:52.801Z,2.10
2022-09-26T11:55:52.771Z,2.10
2022-09-26T11:56:52.782Z,2.20
2022-09-26T11:57:52.924Z,2.00
2022-09-26T11:58:53.177Z,2.20
2022-09-26T11:59:52.746Z,2.00
2022-09-26T12:00:52.707Z,2.00
2022-09-26T12:01:52.717Z,2.10
2022-09-26T12:02:52.915Z,2.00
2022-09-26T12:03:52.827Z,2.10
2022-09-26T12:04:52.696Z,2.10
2022-09-26T12:05:52.736Z,2.00
2022-09-26T12:06:52.664Z,1.80
2022-09-26T12:07:52.803Z,1.90
2022-09-26T12:08:52.638Z,2.60
2022-09-26T12:09:52.632Z,2.30
2022-09-26T12:10:52.691Z,2.40
2022-09-26T12:11:52.591Z,2.10
2022-09-26T12:12:52.577Z,2.10
2022-09-26T12:13:52.665Z,2.10
2022-09-26T12:14:52.565Z,2.10
2022-09-26T12:15:52.608Z,2.00
2022-09-26T12:16:52.613Z,1.50
2022-09-26T12:17:52.778Z,1.90
2022-09-26T12:18:52.511Z,1.70
2022-09-26T12:19:52.548Z,1.60
2022-09-26T12:20:52.563Z,1.90
2022-09-26T12:21:52.481Z,1.90
2022-09-26T12:22:52.467Z,2.00
2022-09-26T12:23:52.451Z,1.70
2022-09-26T12:24:52.456Z,1.60
2022-09-26T12:25:52.440Z,1.80
2022-09-26T12:26:52.466Z,1.50
2022-09-26T12:27:52.411Z,1.60
2022-09-26T12:28:53.123Z,1.90
2022-09-26T12:29:52.394Z,1.60
2022-09-26T12:30:52.472Z,1.70
2022-09-26T12:31:52.431Z,1.80
2022-09-26T12:32:52.361Z,1.60
2022-09-26T12:33:52.341Z,1.30
2022-09-26T12:34:52.336Z,1.60
2022-09-26T12:35:52.333Z,2.10
2022-09-26T12:36:52.349Z,1.40
2022-09-26T12:37:52.318Z,1.40
2022-09-26T12:38:56.540Z,1.40
2022-09-26T12:39:52.281Z,1.40
2022-09-26T12:40:52.411Z,1.90
2022-09-26T12:41:52.256Z,1.50
2022-09-26T12:42:52.251Z,1.50
2022-09-26T12:43:52.234Z,1.40
2022-09-26T12:44:52.231Z,1.50
2022-09-26T12:45:53.409Z,1.80
2022-09-26T12:46:52.335Z,1.60
2022-09-26T12:47:52.203Z,1.60
2022-09-26T12:48:52.194Z,1.60
2022-09-26T12:49:52.170Z,1.40
2022-09-26T12:50:52.198Z,1.50
2022-09-26T12:51:59.703Z,1.60
2022-09-26T12:52:52.147Z,1.50
2022-09-26T12:53:52.126Z,1.60
2022-09-26T12:54:52.120Z,1.70
2022-09-26T12:55:52.169Z,1.50
2022-09-26T12:56:52.097Z,1.40
2022-09-26T12:57:52.107Z,1.80
2022-09-26T12:58:52.076Z,1.40
2022-09-26T12:59:52.074Z,1.50
2022-09-26T13:00:52.073Z,1.60
2022-09-26T13:01:52.184Z,1.40
2022-09-26T13:02:52.169Z,1.50
2022-09-26T13:03:52.017Z,1.30
2022-09-26T13:04:52.022Z,1.40
2022-09-26T13:05:52.008Z,1.30
2022-09-26T13:07:08.030Z,1.40
2022-09-26T13:07:53.007Z,1.30
2022-09-26T13:08:51.984Z,1.10
2022-09-26T13:09:51.959Z,1.20
2022-09-26T13:10:51.957Z,1.30
2022-09-26T13:11:51.951Z,1.20
2022-09-26T13:12:51.922Z,1.30
2022-09-26T13:13:52.029Z,1.10
2022-09-26T13:14:51.911Z,1.10
2022-09-26T13:15:51.983Z,1.40
2022-09-26T13:16:51.879Z,1.20
2022-09-26T13:17:51.875Z,1.10
2022-09-26T13:18:51.873Z,1.40
2022-09-26T13:19:52.733Z,1.20
2022-09-26T13:20:51.838Z,1.10
2022-09-26T13:21:51.841Z,1.20
2022-09-26T13:22:51.812Z,1.10